Friday, July 20, 2018, 8:14 PM EDT
Back to Local

KAVP, Wilkes-barre/scranton International

Location: Pittston, PA, United States Lat: 41.333
Local Time: 8:14 PM EDT ( 0:14 GMT) Lon: -75.733
Time Zone: US/Eastern Elev: 961 ft

Show me the last for .
Show Coded

Time T Td Feel RH Dir Speed Gust Alt SLP Vis Weather Sky Remarks
2018-07-20 19:54 76 56 78 50 Variable 5 - 30.08 30.06 10 CLR 6-hr Min Temp (8pm): 75.9°F
6-hr Max Temp (8pm): 82.9°F
2018-07-20 18:54 77 56 78 48 160° 5 - 30.08 30.05 10 CLR None
2018-07-20 17:54 78 56 79 46 Variable 5 - 30.08 30.06 10 BKN060 None
2018-07-20 16:54 81 56 81 42 Variable 6 16 30.08 30.06 10 FEW065 None
2018-07-20 15:54 79 55 79 43 200° 9 - 30.09 30.07 10 FEW060 None
2018-07-20 14:54 82 57 82 42 210° 8 - 30.11 30.08 10 FEW060 None
2018-07-20 13:54 80 55 80 42 180° 7 - 30.12 30.10 10 BKN055 6-hr Min Temp (2pm): 70.0°F
6-hr Max Temp (2pm): 82.0°F
2018-07-20 12:54 81 56 81 42 210° 7 - 30.14 30.11 9 FEW055 None
2018-07-20 11:54 80 55 80 42 Variable 7 - 30.15 30.13 8 CLR None
2018-07-20 10:54 78 60 80 54 270° 6 - 30.16 30.14 0 CLR None
2018-07-20 09:54 74 60 77 61 Variable 3 - 30.17 30.15 10 CLR None
2018-07-20 08:54 70 59 - 68 330° 3 - 30.17 30.14 10 CLR None
2018-07-20 07:54 66 59 - 78 40° 6 - 30.17 30.14 10 CLR 6-hr Min Temp (8am): 57.0°F
6-hr Max Temp (8am): 66.0°F
2018-07-20 06:54 61 57 - 86 80° 3 - 30.16 30.14 10 CLR None
2018-07-20 05:54 58 56 - 93 - Calm - 30.16 30.13 10 CLR None
2018-07-20 04:54 58 56 - 93 120° 3 - 30.15 30.12 10 CLR None
2018-07-20 03:54 58 54 - 86 40° 3 - 30.14 30.12 10 CLR None
2018-07-20 02:54 61 53 - 75 Variable 3 - 30.14 30.11 10 CLR None
2018-07-20 01:54 60 53 - 77 100° 8 - 30.13 30.11 10 CLR 6-hr Min Temp (2am): 59.0°F
6-hr Max Temp (2am): 78.1°F
2018-07-20 00:54 61 53 - 75 110° 8 - 30.13 30.11 10 CLR 24-hr Min Temp (1am): 50.0°F
24-hr Max Temp (1am): 81.0°F
2018-07-19 23:54 62 53 - 72 100° 8 - 30.13 30.11 10 CLR None
2018-07-19 22:54 64 55 - 72 100° 8 - 30.12 30.11 10 CLR None
2018-07-19 21:54 66 54 - 65 100° 8 - 30.12 30.10 10 CLR None
2018-07-19 20:54 67 57 - 70 130° 3 - 30.09 30.08 10 CLR None

Support USWX by starting your Amazon purchase here.